• Join FlightAware (Why Join?)
  • Login
  • US Flag 
05:03PM EDT


 

Airport Tracker/Info


-or-


 

Live Flight TrackerFlight Track Log ✈ SWA565 ✈ 09-Apr-2013 ✈ KBWI - KBNA

Flight Track Log - Related Links

Times and Time Zones

All times are in EDT time to prevent confusion due to time zone crossing. See the SWA565 flight status page for this flight to view local times or setup timezone preferences in your user account.

Time Position Orientation Groundspeed Altitude Reporting Facility
EDT Latitude Longitude Course Direction KTS MPH feet Rate Location/Type
10:14PM 39.1833 -76.7500 314° West 278 320 6,300  Level Potomac TRACON
10:15PM 39.2000 -76.8333 284° West 250 288 10,600 4,200 Climbing Potomac TRACON
10:16PM 39.2167 -76.9167 284° West 262 302 14,800 2,820 Climbing Potomac TRACON
10:18PM 39.1556 -77.1386 251° West 281 323 20,000 2,160 Climbing Washington Center
10:19PM 39.1189 -77.2397 245° Southwest 295 339 21,900 2,340 Climbing Washington Center
10:20PM 39.0839 -77.3644 250° West 337 388 24,700 1,500 Climbing Washington Center
10:21PM 39.0483 -77.4972 251° West 374 430 25,000 360 Climbing Washington Center
10:22PM 39.0150 -77.6272 252° West 394 453 25,500 1,020 Climbing Washington Center
10:23PM 38.9772 -77.7625 250° West 399 459 27,100 1,800 Climbing Washington Center
10:24PM 38.9436 -77.8869 251° West 411 473 29,100 2,100 Climbing Washington Center
10:25PM 38.9033 -78.0269 250° West 416 479 31,300 2,220 Climbing Washington Center
10:26PM 38.8650 -78.1672 251° West 421 484 33,600 2,400 Climbing Washington Center
10:27PM 38.8514 -78.3133 263° West 421 484 36,100 2,160 Climbing Washington Center
10:28PM 38.8500 -78.4572 269° West 414 476 38,000 900 Climbing Washington Center
10:29PM 38.8467 -78.5956 268° West 400 460 38,000  Level Washington Center
10:30PM 38.8450 -78.7394 269° West 400 460 38,000  Level Washington Center
10:31PM 38.8433 -78.8806 269° West 400 460 38,000  Level Washington Center
10:32PM 38.8394 -79.0192 268° West 400 460 38,000  Level Washington Center
10:33PM 38.8375 -79.1603 269° West 400 460 38,000  Level Washington Center
10:34PM 38.8167 -79.2953 259° West 400 460 38,000  Level Washington Center
10:35PM 38.7917 -79.4325 257° West 400 460 38,000  Level Washington Center
10:36PM 38.7744 -79.5753 261° West 405 466 38,000  Level Washington Center
10:37PM 38.7464 -79.7283 257° West 410 472 38,000  Level Washington Center
10:38PM 38.7228 -79.8625 257° West 410 472 38,000  Level Washington Center
10:40PM 38.6789 -80.0714 255° West 401 461 38,000  Level Indianapolis Center
10:41PM 38.6522 -80.2111 256° West 405 466 38,000  Level Indianapolis Center
10:42PM 38.6217 -80.3767 257° West 400 460 38,000  Level Indianapolis Center
10:43PM 38.5958 -80.5158 257° West 401 461 38,000  Level Indianapolis Center
10:44PM 38.5689 -80.6550 256° West 402 463 38,000  Level Indianapolis Center
10:45PM 38.5422 -80.7950 256° West 404 465 38,000  Level Indianapolis Center
10:46PM 38.5144 -80.9336 256° West 403 464 38,000  Level Indianapolis Center
10:47PM 38.4883 -81.0722 257° West 401 461 38,000  Level Indianapolis Center
10:48PM 38.4606 -81.2114 256° West 400 460 38,000  Level Indianapolis Center
10:49PM 38.4322 -81.3506 255° West 402 463 38,000  Level Indianapolis Center
10:50PM 38.4058 -81.4908 257° West 402 463 38,000  Level Indianapolis Center
10:51PM 38.3778 -81.6308 256° West 405 466 38,000  Level Indianapolis Center
10:52PM 38.3497 -81.7675 255° West 397 457 38,000  Level Indianapolis Center
10:53PM 38.3133 -81.9014 251° West 396 456 38,000  Level Indianapolis Center
10:54PM 38.2756 -82.0358 250° West 402 463 38,000  Level Indianapolis Center
10:55PM 38.2378 -82.1683 250° West 398 458 38,000  Level Indianapolis Center
10:56PM 38.1997 -82.3025 250° West 401 461 38,000  Level Indianapolis Center
10:57PM 38.1617 -82.4347 250° West 399 459 38,000  Level Indianapolis Center
10:58PM 38.1192 -82.5850 250° West 403 464 38,000  Level Indianapolis Center
10:59PM 38.0808 -82.7156 250° West 397 457 38,000  Level Indianapolis Center
11:00PM 38.0278 -82.8397 242° Southwest 401 461 38,000  Level Indianapolis Center
11:02PM 37.9703 -82.9619 239° Southwest 402 463 38,000  Level Indianapolis Center
11:03PM 37.9111 -83.0806 238° Southwest 399 459 38,000 -420 Level Indianapolis Center
11:04PM 37.8431 -83.2225 239° Southwest 404 465 37,200 -1,380 Descending Indianapolis Center
11:05PM 37.7839 -83.3436 238° Southwest 406 467 35,300 -1,920 Descending Indianapolis Center
11:06PM 37.7253 -83.4644 239° Southwest 405 466 33,400 -1,620 Descending Indianapolis Center
11:07PM 37.6664 -83.5847 238° Southwest 405 466 32,100 -720 Descending Indianapolis Center
11:08PM 37.6106 -83.7000 239° Southwest 389 448 32,000 -60 Descending Indianapolis Center
11:09PM 37.5544 -83.8119 238° Southwest 382 440 32,000  Level Indianapolis Center
11:10PM 37.4992 -83.9247 238° Southwest 378 435 32,000  Level Indianapolis Center
11:11PM 37.4431 -84.0375 238° Southwest 380 437 32,000  Level Indianapolis Center
11:12PM 37.3781 -84.1686 238° Southwest 383 441 32,000  Level Indianapolis Center
11:13PM 37.3225 -84.2800 238° Southwest 377 434 32,000  Level Indianapolis Center
11:14PM 37.2650 -84.3950 238° Southwest 386 444 32,000  Level Indianapolis Center
11:15PM 37.2075 -84.5072 237° Southwest 385 443 32,000 -300 Level Indianapolis Center
11:16PM 37.1503 -84.6214 238° Southwest 386 444 31,500 -780 Descending Indianapolis Center
11:17PM 37.0928 -84.7342 237° Southwest 385 443 30,500 -1,080 Descending Indianapolis Center
11:18PM 37.0325 -84.8525 237° Southwest 380 437 29,400 -1,080 Descending Indianapolis Center
11:19PM 36.9775 -84.9611 238° Southwest 373 429 28,400 -1,020 Descending Indianapolis Center
11:20PM 36.9242 -85.0658 238° Southwest 362 417 27,400 -1,020 Descending Indianapolis Center
11:21PM 36.8706 -85.1708 237° Southwest 360 414 26,400 -1,020 Descending Indianapolis Center
11:22PM 36.8158 -85.2758 237° Southwest 360 414 25,400 -1,560 Descending Indianapolis Center
11:23PM 36.7611 -85.3794 237° Southwest 370 426 23,400 -1,800 Descending Memphis Center
11:24PM 36.7133 -85.4858 241° Southwest 360 414 22,000 -1,740 Descending Memphis Center
11:25PM 36.6608 -85.5847 237° Southwest 353 406 20,000 -2,100 Descending Memphis Center
11:26PM 36.6147 -85.6883 241° Southwest 353 406 17,900 -1,980 Descending Memphis Center
11:27PM 36.5661 -85.7842 238° Southwest 348 400 16,100 -2,100 Descending Memphis Center
11:28PM 36.5261 -85.8819 243° Southwest 340 391 13,800 -1,920 Descending Memphis Center
11:29PM 36.4872 -85.9614 239° Southwest 324 373 12,300 -1,680 Descending Memphis Center
11:30PM 36.4444 -86.0489 239° Southwest 306 352 10,500 -1,380 Descending Memphis Center
11:31PM 36.4264 -86.1350 255° West 279 321 9,600 -960 Descending Memphis Center
11:32PM 36.4125 -86.2181 258° West 257 296 8,600 -1,020 Descending Memphis Center
11:33PM 36.3986 -86.3014 258° West 252 290 7,600 -1,080 Descending Memphis Center
11:34PM 36.3847 -86.3844 258° West 252 290 6,500 -1,080 Descending Memphis Center
11:35PM 36.3622 -86.4631 250° West 252 290 5,500 -720 Descending Memphis Center
11:36PM 36.3331 -86.5289 241° Southwest 223 257 5,100 -600 Descending Memphis Center
11:37PM 36.3075 -86.5789 238° Southwest 193 222 4,400 -840 Descending Memphis Center
11:38PM 36.2728 -86.6036 210° Southwest 159 183 3,500 -900 Descending Memphis Center
11:39PM 36.2336 -86.6208 200° South 153 176 2,600 -840 Descending Memphis Center
11:40PM 36.1964 -86.6356 198° South 148 170 1,900 -660 Descending Memphis Center
11:41PM 36.1675 -86.6444 194° South 123 142 1,300 -600 Descending Memphis Center
11:44PM 36.1167 -86.6667 287° West  Level FlightAware Approximate